sensor_id;sensor_type;location;lat;lon;timestamp;P1;durP1;ratioP1;P2;durP2;ratioP2
56255;SDS011;57229;51.432;-2.598;2023-03-25T00:02:19;21.38;;;5.90;;
56255;SDS011;57229;51.432;-2.598;2023-03-25T00:04:49;10.88;;;5.20;;
56255;SDS011;57229;51.432;-2.598;2023-03-25T00:07:19;22.38;;;5.93;;
56255;SDS011;57229;51.432;-2.598;2023-03-25T00:09:45;16.85;;;5.72;;
56255;SDS011;57229;51.432;-2.598;2023-03-25T00:12:12;13.15;;;5.47;;
56255;SDS011;57229;51.432;-2.598;2023-03-25T00:14:39;23.98;;;6.30;;
56255;SDS011;57229;51.432;-2.598;2023-03-25T00:17:06;24.05;;;6.28;;
56255;SDS011;57229;51.432;-2.598;2023-03-25T00:19:32;23.48;;;5.80;;
56255;SDS011;57229;51.432;-2.598;2023-03-25T00:21:59;22.35;;;6.20;;
56255;SDS011;57229;51.432;-2.598;2023-03-25T00:24:25;23.27;;;6.35;;
56255;SDS011;57229;51.432;-2.598;2023-03-25T00:26:51;18.75;;;5.47;;
56255;SDS011;57229;51.432;-2.598;2023-03-25T00:29:18;22.85;;;5.20;;
56255;SDS011;57229;51.432;-2.598;2023-03-25T00:31:44;22.58;;;5.57;;
56255;SDS011;57229;51.432;-2.598;2023-03-25T00:34:10;16.45;;;5.03;;
56255;SDS011;57229;51.432;-2.598;2023-03-25T00:36:39;21.30;;;5.25;;
56255;SDS011;57229;51.432;-2.598;2023-03-25T00:39:06;18.23;;;5.35;;
56255;SDS011;57229;51.432;-2.598;2023-03-25T00:41:32;20.80;;;5.60;;
56255;SDS011;57229;51.432;-2.598;2023-03-25T00:44:01;28.48;;;6.03;;
56255;SDS011;57229;51.432;-2.598;2023-03-25T00:46:28;28.42;;;6.32;;
56255;SDS011;57229;51.432;-2.598;2023-03-25T00:59:13;22.30;;;6.43;;
56255;SDS011;57229;51.432;-2.598;2023-03-25T01:01:39;25.98;;;6.72;;
56255;SDS011;57229;51.432;-2.598;2023-03-25T01:04:05;24.58;;;6.22;;
56255;SDS011;57229;51.432;-2.598;2023-03-25T01:06:36;30.30;;;6.93;;
56255;SDS011;57229;51.432;-2.598;2023-03-25T01:09:08;36.50;;;6.85;;
56255;SDS011;57229;51.432;-2.598;2023-03-25T01:11:38;33.05;;;6.95;;
56255;SDS011;57229;51.432;-2.598;2023-03-25T01:17:16;37.63;;;6.53;;
56255;SDS011;57229;51.432;-2.598;2023-03-25T01:19:42;35.95;;;7.20;;
56255;SDS011;57229;51.432;-2.598;2023-03-25T01:22:08;28.92;;;6.15;;
56255;SDS011;57229;51.432;-2.598;2023-03-25T01:24:34;30.33;;;7.13;;
56255;SDS011;57229;51.432;-2.598;2023-03-25T01:26:59;25.27;;;6.20;;
56255;SDS011;57229;51.432;-2.598;2023-03-25T01:29:25;27.67;;;6.53;;
56255;SDS011;57229;51.432;-2.598;2023-03-25T01:31:51;28.02;;;5.80;;
56255;SDS011;57229;51.432;-2.598;2023-03-25T01:34:18;22.00;;;6.47;;
56255;SDS011;57229;51.432;-2.598;2023-03-25T01:36:44;25.95;;;6.30;;
56255;SDS011;57229;51.432;-2.598;2023-03-25T01:39:10;23.75;;;6.05;;
56255;SDS011;57229;51.432;-2.598;2023-03-25T01:41:40;27.13;;;5.97;;
56255;SDS011;57229;51.432;-2.598;2023-03-25T01:46:42;26.95;;;6.18;;
56255;SDS011;57229;51.432;-2.598;2023-03-25T01:49:09;25.95;;;6.25;;
56255;SDS011;57229;51.432;-2.598;2023-03-25T01:51:55;26.23;;;6.47;;
56255;SDS011;57229;51.432;-2.598;2023-03-25T01:54:24;23.60;;;6.22;;
56255;SDS011;57229;51.432;-2.598;2023-03-25T01:56:51;25.45;;;5.90;;
56255;SDS011;57229;51.432;-2.598;2023-03-25T01:59:19;20.70;;;5.95;;
56255;SDS011;57229;51.432;-2.598;2023-03-25T02:01:48;33.47;;;6.75;;
56255;SDS011;57229;51.432;-2.598;2023-03-25T02:04:16;22.35;;;6.32;;
56255;SDS011;57229;51.432;-2.598;2023-03-25T02:07:10;28.05;;;6.70;;
56255;SDS011;57229;51.432;-2.598;2023-03-25T02:09:37;25.52;;;6.47;;
56255;SDS011;57229;51.432;-2.598;2023-03-25T02:12:02;25.58;;;6.53;;
56255;SDS011;57229;51.432;-2.598;2023-03-25T02:14:29;29.73;;;6.05;;
56255;SDS011;57229;51.432;-2.598;2023-03-25T02:23:07;35.75;;;7.25;;
56255;SDS011;57229;51.432;-2.598;2023-03-25T02:42:21;39.67;;;6.68;;
56255;SDS011;57229;51.432;-2.598;2023-03-25T02:44:58;33.25;;;6.90;;
56255;SDS011;57229;51.432;-2.598;2023-03-25T02:47:34;30.25;;;7.47;;
56255;SDS011;57229;51.432;-2.598;2023-03-25T02:50:09;37.97;;;7.20;;
56255;SDS011;57229;51.432;-2.598;2023-03-25T02:55:37;30.23;;;6.45;;
56255;SDS011;57229;51.432;-2.598;2023-03-25T02:58:06;27.95;;;6.25;;
56255;SDS011;57229;51.432;-2.598;2023-03-25T03:00:38;41.92;;;8.98;;
56255;SDS011;57229;51.432;-2.598;2023-03-25T03:03:05;35.03;;;6.35;;
56255;SDS011;57229;51.432;-2.598;2023-03-25T03:08:18;45.60;;;6.65;;
56255;SDS011;57229;51.432;-2.598;2023-03-25T03:10:50;33.08;;;6.85;;
56255;SDS011;57229;51.432;-2.598;2023-03-25T03:24:46;32.47;;;6.20;;
56255;SDS011;57229;51.432;-2.598;2023-03-25T03:27:27;39.83;;;7.10;;
56255;SDS011;57229;51.432;-2.598;2023-03-25T03:30:05;29.00;;;6.95;;
56255;SDS011;57229;51.432;-2.598;2023-03-25T03:33:00;32.38;;;7.50;;
56255;SDS011;57229;51.432;-2.598;2023-03-25T03:35:30;34.88;;;7.35;;
56255;SDS011;57229;51.432;-2.598;2023-03-25T03:38:03;23.17;;;6.18;;
56255;SDS011;57229;51.432;-2.598;2023-03-25T03:40:36;38.28;;;7.43;;
56255;SDS011;57229;51.432;-2.598;2023-03-25T03:43:06;32.40;;;6.30;;
56255;SDS011;57229;51.432;-2.598;2023-03-25T03:45:38;41.50;;;7.22;;
56255;SDS011;57229;51.432;-2.598;2023-03-25T03:48:12;25.60;;;6.30;;
56255;SDS011;57229;51.432;-2.598;2023-03-25T03:51:01;26.00;;;5.95;;
56255;SDS011;57229;51.432;-2.598;2023-03-25T03:53:37;35.35;;;6.47;;
56255;SDS011;57229;51.432;-2.598;2023-03-25T03:56:14;29.95;;;6.13;;
56255;SDS011;57229;51.432;-2.598;2023-03-25T03:58:46;19.15;;;6.13;;
56255;SDS011;57229;51.432;-2.598;2023-03-25T04:01:29;38.00;;;5.95;;
56255;SDS011;57229;51.432;-2.598;2023-03-25T04:04:04;38.22;;;6.15;;
56255;SDS011;57229;51.432;-2.598;2023-03-25T04:09:01;30.58;;;7.22;;
56255;SDS011;57229;51.432;-2.598;2023-03-25T04:12:34;36.67;;;6.55;;
56255;SDS011;57229;51.432;-2.598;2023-03-25T04:14:44;36.88;;;7.07;;
56255;SDS011;57229;51.432;-2.598;2023-03-25T04:17:10;25.98;;;6.18;;
56255;SDS011;57229;51.432;-2.598;2023-03-25T04:19:36;27.80;;;6.97;;
56255;SDS011;57229;51.432;-2.598;2023-03-25T04:22:02;33.22;;;6.13;;
56255;SDS011;57229;51.432;-2.598;2023-03-25T04:24:29;32.42;;;6.05;;
56255;SDS011;57229;51.432;-2.598;2023-03-25T04:26:58;33.88;;;6.32;;
56255;SDS011;57229;51.432;-2.598;2023-03-25T04:29:31;23.75;;;5.65;;
56255;SDS011;57229;51.432;-2.598;2023-03-25T04:31:58;32.88;;;6.47;;
56255;SDS011;57229;51.432;-2.598;2023-03-25T04:34:24;32.78;;;6.68;;
56255;SDS011;57229;51.432;-2.598;2023-03-25T04:36:51;34.50;;;6.72;;
56255;SDS011;57229;51.432;-2.598;2023-03-25T04:39:19;38.50;;;6.97;;
56255;SDS011;57229;51.432;-2.598;2023-03-25T04:41:48;22.98;;;6.05;;
56255;SDS011;57229;51.432;-2.598;2023-03-25T04:44:18;24.10;;;5.45;;
56255;SDS011;57229;51.432;-2.598;2023-03-25T04:46:46;24.48;;;5.97;;
56255;SDS011;57229;51.432;-2.598;2023-03-25T04:49:16;28.40;;;5.82;;
56255;SDS011;57229;51.432;-2.598;2023-03-25T04:51:45;27.35;;;5.70;;
56255;SDS011;57229;51.432;-2.598;2023-03-25T04:54:15;24.80;;;6.28;;
56255;SDS011;57229;51.432;-2.598;2023-03-25T04:56:42;31.58;;;5.88;;
56255;SDS011;57229;51.432;-2.598;2023-03-25T04:59:08;26.40;;;5.90;;
56255;SDS011;57229;51.432;-2.598;2023-03-25T05:01:36;27.98;;;5.93;;
56255;SDS011;57229;51.432;-2.598;2023-03-25T05:04:06;26.98;;;5.95;;
56255;SDS011;57229;51.432;-2.598;2023-03-25T05:06:37;26.70;;;6.15;;
56255;SDS011;57229;51.432;-2.598;2023-03-25T05:09:04;26.90;;;5.35;;
56255;SDS011;57229;51.432;-2.598;2023-03-25T05:11:32;24.33;;;5.63;;
56255;SDS011;57229;51.432;-2.598;2023-03-25T05:13:58;26.25;;;6.15;;
56255;SDS011;57229;51.432;-2.598;2023-03-25T05:16:28;26.27;;;5.93;;
56255;SDS011;57229;51.432;-2.598;2023-03-25T05:19:09;27.67;;;5.85;;
56255;SDS011;57229;51.432;-2.598;2023-03-25T05:22:18;23.42;;;6.10;;
56255;SDS011;57229;51.432;-2.598;2023-03-25T05:27:50;21.98;;;5.55;;
56255;SDS011;57229;51.432;-2.598;2023-03-25T05:30:16;28.60;;;6.88;;
56255;SDS011;57229;51.432;-2.598;2023-03-25T05:32:52;23.70;;;5.70;;
56255;SDS011;57229;51.432;-2.598;2023-03-25T05:35:47;27.67;;;6.35;;
56255;SDS011;57229;51.432;-2.598;2023-03-25T05:38:51;21.63;;;5.47;;
56255;SDS011;57229;51.432;-2.598;2023-03-25T05:44:36;24.75;;;5.72;;
56255;SDS011;57229;51.432;-2.598;2023-03-25T05:47:15;23.33;;;5.72;;
56255;SDS011;57229;51.432;-2.598;2023-03-25T05:49:46;16.60;;;5.63;;
56255;SDS011;57229;51.432;-2.598;2023-03-25T05:52:12;26.88;;;6.38;;
56255;SDS011;57229;51.432;-2.598;2023-03-25T05:54:42;35.10;;;6.18;;
56255;SDS011;57229;51.432;-2.598;2023-03-25T05:57:30;35.40;;;8.45;;
56255;SDS011;57229;51.432;-2.598;2023-03-25T05:59:56;28.27;;;6.93;;
56255;SDS011;57229;51.432;-2.598;2023-03-25T06:02:21;33.17;;;7.65;;
56255;SDS011;57229;51.432;-2.598;2023-03-25T06:04:47;23.23;;;6.38;;
56255;SDS011;57229;51.432;-2.598;2023-03-25T06:07:15;36.65;;;6.22;;
56255;SDS011;57229;51.432;-2.598;2023-03-25T06:09:47;37.92;;;6.45;;
56255;SDS011;57229;51.432;-2.598;2023-03-25T06:12:14;41.72;;;7.18;;
56255;SDS011;57229;51.432;-2.598;2023-03-25T06:14:41;44.95;;;7.70;;
56255;SDS011;57229;51.432;-2.598;2023-03-25T06:17:09;38.03;;;7.75;;
56255;SDS011;57229;51.432;-2.598;2023-03-25T06:19:39;43.70;;;7.90;;
56255;SDS011;57229;51.432;-2.598;2023-03-25T06:22:05;34.58;;;7.65;;
56255;SDS011;57229;51.432;-2.598;2023-03-25T06:24:36;40.70;;;7.63;;
56255;SDS011;57229;51.432;-2.598;2023-03-25T06:27:06;29.70;;;6.95;;
56255;SDS011;57229;51.432;-2.598;2023-03-25T06:29:36;31.38;;;6.95;;
56255;SDS011;57229;51.432;-2.598;2023-03-25T06:32:02;37.30;;;7.68;;
56255;SDS011;57229;51.432;-2.598;2023-03-25T06:34:29;35.00;;;7.43;;
56255;SDS011;57229;51.432;-2.598;2023-03-25T06:36:56;34.47;;;6.43;;
56255;SDS011;57229;51.432;-2.598;2023-03-25T06:39:23;33.35;;;6.78;;
56255;SDS011;57229;51.432;-2.598;2023-03-25T06:41:49;45.78;;;6.93;;
56255;SDS011;57229;51.432;-2.598;2023-03-25T06:44:15;35.95;;;8.25;;
56255;SDS011;57229;51.432;-2.598;2023-03-25T06:46:42;46.47;;;7.53;;
56255;SDS011;57229;51.432;-2.598;2023-03-25T06:49:07;34.00;;;6.50;;
56255;SDS011;57229;51.432;-2.598;2023-03-25T06:51:33;64.57;;;7.57;;
56255;SDS011;57229;51.432;-2.598;2023-03-25T06:53:59;40.95;;;7.07;;
56255;SDS011;57229;51.432;-2.598;2023-03-25T06:56:25;31.65;;;6.40;;
56255;SDS011;57229;51.432;-2.598;2023-03-25T06:58:50;42.95;;;7.03;;
56255;SDS011;57229;51.432;-2.598;2023-03-25T07:01:16;36.63;;;7.32;;
56255;SDS011;57229;51.432;-2.598;2023-03-25T07:03:42;37.00;;;7.25;;
56255;SDS011;57229;51.432;-2.598;2023-03-25T07:06:08;29.85;;;6.88;;
56255;SDS011;57229;51.432;-2.598;2023-03-25T07:08:40;33.22;;;6.60;;
56255;SDS011;57229;51.432;-2.598;2023-03-25T07:11:06;38.10;;;7.65;;
56255;SDS011;57229;51.432;-2.598;2023-03-25T07:13:32;31.63;;;7.13;;
56255;SDS011;57229;51.432;-2.598;2023-03-25T07:15:59;34.63;;;6.32;;
56255;SDS011;57229;51.432;-2.598;2023-03-25T07:18:25;27.95;;;6.88;;
56255;SDS011;57229;51.432;-2.598;2023-03-25T07:20:51;39.20;;;7.22;;
56255;SDS011;57229;51.432;-2.598;2023-03-25T07:23:18;28.63;;;6.65;;
56255;SDS011;57229;51.432;-2.598;2023-03-25T07:25:44;35.78;;;6.22;;
56255;SDS011;57229;51.432;-2.598;2023-03-25T07:28:10;33.75;;;7.53;;
56255;SDS011;57229;51.432;-2.598;2023-03-25T07:30:46;35.33;;;7.47;;
56255;SDS011;57229;51.432;-2.598;2023-03-25T07:33:11;30.05;;;6.50;;
56255;SDS011;57229;51.432;-2.598;2023-03-25T07:35:37;34.38;;;6.07;;
56255;SDS011;57229;51.432;-2.598;2023-03-25T07:38:03;37.70;;;6.88;;
56255;SDS011;57229;51.432;-2.598;2023-03-25T07:40:30;37.80;;;7.07;;
56255;SDS011;57229;51.432;-2.598;2023-03-25T07:45:50;40.15;;;7.28;;
56255;SDS011;57229;51.432;-2.598;2023-03-25T07:48:26;34.25;;;7.68;;
56255;SDS011;57229;51.432;-2.598;2023-03-25T07:50:52;28.67;;;6.88;;
56255;SDS011;57229;51.432;-2.598;2023-03-25T07:56:07;41.08;;;7.80;;
56255;SDS011;57229;51.432;-2.598;2023-03-25T07:58:42;39.75;;;7.43;;
56255;SDS011;57229;51.432;-2.598;2023-03-25T08:01:20;37.00;;;7.70;;
56255;SDS011;57229;51.432;-2.598;2023-03-25T08:03:46;40.15;;;7.40;;
56255;SDS011;57229;51.432;-2.598;2023-03-25T08:06:16;25.67;;;6.22;;
56255;SDS011;57229;51.432;-2.598;2023-03-25T08:09:08;27.27;;;6.72;;
56255;SDS011;57229;51.432;-2.598;2023-03-25T08:11:35;31.25;;;6.50;;
56255;SDS011;57229;51.432;-2.598;2023-03-25T08:14:04;16.35;;;5.28;;
56255;SDS011;57229;51.432;-2.598;2023-03-25T08:16:29;16.05;;;5.28;;
56255;SDS011;57229;51.432;-2.598;2023-03-25T08:19:02;21.33;;;5.50;;
56255;SDS011;57229;51.432;-2.598;2023-03-25T08:24:39;22.92;;;6.28;;
56255;SDS011;57229;51.432;-2.598;2023-03-25T08:27:22;27.90;;;6.53;;
56255;SDS011;57229;51.432;-2.598;2023-03-25T08:29:52;24.38;;;6.45;;
56255;SDS011;57229;51.432;-2.598;2023-03-25T08:32:30;35.78;;;6.75;;
56255;SDS011;57229;51.432;-2.598;2023-03-25T08:34:56;22.85;;;6.53;;
56255;SDS011;57229;51.432;-2.598;2023-03-25T08:37:22;28.33;;;6.70;;
56255;SDS011;57229;51.432;-2.598;2023-03-25T08:40:02;24.58;;;6.30;;
56255;SDS011;57229;51.432;-2.598;2023-03-25T08:42:33;28.10;;;6.20;;
56255;SDS011;57229;51.432;-2.598;2023-03-25T08:44:59;27.80;;;6.35;;
56255;SDS011;57229;51.432;-2.598;2023-03-25T08:47:37;30.48;;;6.50;;
56255;SDS011;57229;51.432;-2.598;2023-03-25T08:50:13;24.55;;;6.22;;
56255;SDS011;57229;51.432;-2.598;2023-03-25T08:56:28;27.25;;;6.40;;
56255;SDS011;57229;51.432;-2.598;2023-03-25T08:58:58;25.13;;;6.13;;
56255;SDS011;57229;51.432;-2.598;2023-03-25T09:01:53;34.42;;;6.75;;
56255;SDS011;57229;51.432;-2.598;2023-03-25T09:04:48;34.38;;;6.82;;
56255;SDS011;57229;51.432;-2.598;2023-03-25T09:07:20;29.45;;;7.25;;
56255;SDS011;57229;51.432;-2.598;2023-03-25T09:09:47;34.78;;;6.97;;
56255;SDS011;57229;51.432;-2.598;2023-03-25T09:12:12;34.05;;;6.72;;
56255;SDS011;57229;51.432;-2.598;2023-03-25T09:14:38;34.25;;;7.15;;
56255;SDS011;57229;51.432;-2.598;2023-03-25T09:17:10;31.20;;;6.88;;
56255;SDS011;57229;51.432;-2.598;2023-03-25T09:19:36;26.65;;;6.38;;
56255;SDS011;57229;51.432;-2.598;2023-03-25T09:22:09;25.00;;;6.07;;
56255;SDS011;57229;51.432;-2.598;2023-03-25T09:24:38;31.25;;;6.43;;
56255;SDS011;57229;51.432;-2.598;2023-03-25T09:27:04;26.10;;;6.03;;
56255;SDS011;57229;51.432;-2.598;2023-03-25T09:29:36;25.50;;;6.53;;
56255;SDS011;57229;51.432;-2.598;2023-03-25T09:32:13;21.15;;;6.22;;
56255;SDS011;57229;51.432;-2.598;2023-03-25T09:35:17;23.33;;;5.22;;
56255;SDS011;57229;51.432;-2.598;2023-03-25T09:38:40;28.13;;;6.28;;
56255;SDS011;57229;51.432;-2.598;2023-03-25T09:44:28;29.75;;;5.82;;
56255;SDS011;57229;51.432;-2.598;2023-03-25T09:50:23;20.30;;;6.57;;
56255;SDS011;57229;51.432;-2.598;2023-03-25T09:53:00;19.40;;;5.97;;
56255;SDS011;57229;51.432;-2.598;2023-03-25T10:37:25;23.60;;;7.53;;
56255;SDS011;57229;51.432;-2.598;2023-03-25T11:11:32;12.70;;;5.22;;
56255;SDS011;57229;51.432;-2.598;2023-03-25T11:21:25;23.52;;;6.15;;
56255;SDS011;57229;51.432;-2.598;2023-03-25T11:37:42;17.63;;;6.65;;
56255;SDS011;57229;51.432;-2.598;2023-03-25T11:43:56;16.52;;;6.03;;
56255;SDS011;57229;51.432;-2.598;2023-03-25T11:46:31;10.93;;;5.68;;
56255;SDS011;57229;51.432;-2.598;2023-03-25T11:49:38;9.40;;;5.20;;
56255;SDS011;57229;51.432;-2.598;2023-03-25T12:16:44;16.50;;;5.32;;
56255;SDS011;57229;51.432;-2.598;2023-03-25T12:19:28;16.60;;;5.57;;
56255;SDS011;57229;51.432;-2.598;2023-03-25T12:48:21;9.23;;;4.57;;
56255;SDS011;57229;51.432;-2.598;2023-03-25T12:51:14;14.85;;;6.03;;
56255;SDS011;57229;51.432;-2.598;2023-03-25T13:10:43;13.00;;;5.60;;
56255;SDS011;57229;51.432;-2.598;2023-03-25T13:13:50;13.10;;;5.70;;
56255;SDS011;57229;51.432;-2.598;2023-03-25T13:16:28;12.13;;;5.03;;
56255;SDS011;57229;51.432;-2.598;2023-03-25T13:22:23;15.10;;;5.55;;
56255;SDS011;57229;51.432;-2.598;2023-03-25T13:52:43;23.70;;;5.97;;
56255;SDS011;57229;51.432;-2.598;2023-03-25T13:56:00;15.30;;;5.40;;
56255;SDS011;57229;51.432;-2.598;2023-03-25T14:11:25;13.55;;;5.30;;
56255;SDS011;57229;51.432;-2.598;2023-03-25T14:16:25;15.15;;;5.65;;
56255;SDS011;57229;51.432;-2.598;2023-03-25T14:22:19;21.48;;;6.47;;
56255;SDS011;57229;51.432;-2.598;2023-03-25T14:24:50;24.77;;;6.43;;
56255;SDS011;57229;51.432;-2.598;2023-03-25T14:27:45;19.10;;;6.57;;
56255;SDS011;57229;51.432;-2.598;2023-03-25T14:30:18;17.20;;;6.32;;
56255;SDS011;57229;51.432;-2.598;2023-03-25T14:32:45;18.40;;;5.82;;
56255;SDS011;57229;51.432;-2.598;2023-03-25T14:45:59;16.48;;;5.82;;
56255;SDS011;57229;51.432;-2.598;2023-03-25T14:48:42;16.95;;;6.20;;
56255;SDS011;57229;51.432;-2.598;2023-03-25T14:51:20;16.95;;;5.90;;
56255;SDS011;57229;51.432;-2.598;2023-03-25T14:54:26;14.35;;;5.38;;
56255;SDS011;57229;51.432;-2.598;2023-03-25T14:57:24;12.30;;;5.90;;
56255;SDS011;57229;51.432;-2.598;2023-03-25T14:59:53;11.30;;;5.97;;
56255;SDS011;57229;51.432;-2.598;2023-03-25T15:02:31;14.73;;;5.95;;
56255;SDS011;57229;51.432;-2.598;2023-03-25T15:05:02;15.48;;;5.65;;
56255;SDS011;57229;51.432;-2.598;2023-03-25T15:10:24;17.08;;;5.40;;
56255;SDS011;57229;51.432;-2.598;2023-03-25T15:12:55;11.27;;;5.40;;
56255;SDS011;57229;51.432;-2.598;2023-03-25T15:15:32;7.57;;;4.80;;
56255;SDS011;57229;51.432;-2.598;2023-03-25T15:18:04;16.52;;;6.07;;
56255;SDS011;57229;51.432;-2.598;2023-03-25T15:20:36;14.63;;;5.40;;
56255;SDS011;57229;51.432;-2.598;2023-03-25T15:25:50;20.52;;;5.63;;
56255;SDS011;57229;51.432;-2.598;2023-03-25T15:31:21;14.82;;;5.57;;
56255;SDS011;57229;51.432;-2.598;2023-03-25T15:34:05;16.25;;;6.13;;
56255;SDS011;57229;51.432;-2.598;2023-03-25T15:37:00;16.80;;;5.30;;
56255;SDS011;57229;51.432;-2.598;2023-03-25T15:39:59;15.75;;;5.43;;
56255;SDS011;57229;51.432;-2.598;2023-03-25T15:45:42;17.90;;;6.07;;
56255;SDS011;57229;51.432;-2.598;2023-03-25T15:56:39;18.83;;;5.97;;
56255;SDS011;57229;51.432;-2.598;2023-03-25T16:01:54;23.73;;;5.65;;
56255;SDS011;57229;51.432;-2.598;2023-03-25T16:07:00;19.27;;;5.68;;
56255;SDS011;57229;51.432;-2.598;2023-03-25T16:09:29;20.27;;;6.43;;
56255;SDS011;57229;51.432;-2.598;2023-03-25T16:11:59;17.75;;;5.45;;
56255;SDS011;57229;51.432;-2.598;2023-03-25T16:14:31;19.42;;;5.70;;
56255;SDS011;57229;51.432;-2.598;2023-03-25T16:16:58;24.35;;;6.05;;
56255;SDS011;57229;51.432;-2.598;2023-03-25T16:19:40;20.77;;;6.47;;
56255;SDS011;57229;51.432;-2.598;2023-03-25T16:22:16;15.00;;;6.00;;
56255;SDS011;57229;51.432;-2.598;2023-03-25T16:24:49;20.83;;;6.30;;
56255;SDS011;57229;51.432;-2.598;2023-03-25T16:27:19;22.95;;;7.07;;
56255;SDS011;57229;51.432;-2.598;2023-03-25T16:29:51;15.32;;;5.88;;
56255;SDS011;57229;51.432;-2.598;2023-03-25T16:32:23;18.15;;;6.38;;
56255;SDS011;57229;51.432;-2.598;2023-03-25T16:34:56;21.40;;;6.95;;
56255;SDS011;57229;51.432;-2.598;2023-03-25T16:37:22;18.45;;;6.05;;
56255;SDS011;57229;51.432;-2.598;2023-03-25T16:39:52;20.63;;;5.70;;
56255;SDS011;57229;51.432;-2.598;2023-03-25T16:44:57;18.95;;;6.60;;
56255;SDS011;57229;51.432;-2.598;2023-03-25T16:47:24;20.15;;;6.43;;
56255;SDS011;57229;51.432;-2.598;2023-03-25T16:49:51;17.73;;;6.97;;
56255;SDS011;57229;51.432;-2.598;2023-03-25T16:52:24;22.45;;;6.55;;
56255;SDS011;57229;51.432;-2.598;2023-03-25T16:57:21;15.40;;;6.28;;
56255;SDS011;57229;51.432;-2.598;2023-03-25T16:59:51;21.92;;;7.13;;
56255;SDS011;57229;51.432;-2.598;2023-03-25T17:02:24;24.33;;;6.55;;
56255;SDS011;57229;51.432;-2.598;2023-03-25T17:04:52;22.52;;;6.32;;
56255;SDS011;57229;51.432;-2.598;2023-03-25T17:07:25;22.63;;;5.80;;
56255;SDS011;57229;51.432;-2.598;2023-03-25T17:09:56;22.77;;;6.35;;
56255;SDS011;57229;51.432;-2.598;2023-03-25T17:12:24;20.20;;;6.80;;
56255;SDS011;57229;51.432;-2.598;2023-03-25T17:14:51;27.75;;;6.40;;
56255;SDS011;57229;51.432;-2.598;2023-03-25T17:19:47;24.33;;;6.72;;
56255;SDS011;57229;51.432;-2.598;2023-03-25T17:22:19;17.58;;;6.25;;
56255;SDS011;57229;51.432;-2.598;2023-03-25T17:27:52;20.38;;;6.40;;
56255;SDS011;57229;51.432;-2.598;2023-03-25T17:33:09;18.50;;;6.50;;
56255;SDS011;57229;51.432;-2.598;2023-03-25T17:35:42;22.05;;;7.47;;
56255;SDS011;57229;51.432;-2.598;2023-03-25T17:38:15;16.02;;;6.40;;
56255;SDS011;57229;51.432;-2.598;2023-03-25T17:41:01;20.80;;;6.60;;
56255;SDS011;57229;51.432;-2.598;2023-03-25T17:43:28;19.92;;;6.10;;
56255;SDS011;57229;51.432;-2.598;2023-03-25T17:45:56;19.30;;;6.15;;
56255;SDS011;57229;51.432;-2.598;2023-03-25T17:48:22;21.23;;;6.00;;
56255;SDS011;57229;51.432;-2.598;2023-03-25T17:50:52;21.98;;;6.90;;
56255;SDS011;57229;51.432;-2.598;2023-03-25T17:53:19;17.50;;;6.10;;
56255;SDS011;57229;51.432;-2.598;2023-03-25T17:55:45;22.65;;;6.47;;
56255;SDS011;57229;51.432;-2.598;2023-03-25T17:58:12;22.65;;;7.07;;
56255;SDS011;57229;51.432;-2.598;2023-03-25T18:00:41;32.55;;;8.38;;
56255;SDS011;57229;51.432;-2.598;2023-03-25T18:03:16;23.85;;;7.60;;
56255;SDS011;57229;51.432;-2.598;2023-03-25T18:05:50;22.17;;;6.88;;
56255;SDS011;57229;51.432;-2.598;2023-03-25T18:08:18;17.30;;;6.40;;
56255;SDS011;57229;51.432;-2.598;2023-03-25T18:10:48;16.63;;;6.60;;
56255;SDS011;57229;51.432;-2.598;2023-03-25T18:13:15;21.20;;;6.90;;
56255;SDS011;57229;51.432;-2.598;2023-03-25T18:15:45;21.60;;;7.00;;
56255;SDS011;57229;51.432;-2.598;2023-03-25T18:18:14;17.77;;;7.55;;
56255;SDS011;57229;51.432;-2.598;2023-03-25T18:20:42;21.52;;;7.55;;
56255;SDS011;57229;51.432;-2.598;2023-03-25T18:23:09;17.77;;;7.68;;
56255;SDS011;57229;51.432;-2.598;2023-03-25T18:25:37;25.40;;;7.55;;
56255;SDS011;57229;51.432;-2.598;2023-03-25T18:28:03;20.05;;;7.40;;
56255;SDS011;57229;51.432;-2.598;2023-03-25T18:30:30;22.35;;;7.20;;
56255;SDS011;57229;51.432;-2.598;2023-03-25T18:33:08;22.23;;;7.10;;
56255;SDS011;57229;51.432;-2.598;2023-03-25T18:35:34;23.88;;;7.18;;
56255;SDS011;57229;51.432;-2.598;2023-03-25T18:38:00;24.33;;;7.13;;
56255;SDS011;57229;51.432;-2.598;2023-03-25T18:40:29;17.92;;;6.85;;
56255;SDS011;57229;51.432;-2.598;2023-03-25T18:42:58;21.35;;;6.85;;
56255;SDS011;57229;51.432;-2.598;2023-03-25T18:45:24;22.88;;;7.13;;
56255;SDS011;57229;51.432;-2.598;2023-03-25T18:51:36;18.55;;;7.60;;
56255;SDS011;57229;51.432;-2.598;2023-03-25T18:54:08;21.70;;;8.27;;
56255;SDS011;57229;51.432;-2.598;2023-03-25T18:56:40;19.02;;;7.93;;
56255;SDS011;57229;51.432;-2.598;2023-03-25T18:59:10;20.80;;;7.65;;
56255;SDS011;57229;51.432;-2.598;2023-03-25T19:01:39;15.52;;;7.00;;
56255;SDS011;57229;51.432;-2.598;2023-03-25T19:04:08;14.70;;;7.05;;
56255;SDS011;57229;51.432;-2.598;2023-03-25T19:06:33;16.77;;;6.55;;
56255;SDS011;57229;51.432;-2.598;2023-03-25T19:09:05;12.93;;;6.47;;
56255;SDS011;57229;51.432;-2.598;2023-03-25T19:11:42;11.48;;;6.13;;
56255;SDS011;57229;51.432;-2.598;2023-03-25T19:14:07;10.98;;;6.47;;
56255;SDS011;57229;51.432;-2.598;2023-03-25T19:16:33;12.05;;;6.75;;
56255;SDS011;57229;51.432;-2.598;2023-03-25T19:18:59;12.25;;;6.82;;
56255;SDS011;57229;51.432;-2.598;2023-03-25T19:21:28;13.98;;;7.35;;
56255;SDS011;57229;51.432;-2.598;2023-03-25T19:23:54;11.90;;;7.57;;
56255;SDS011;57229;51.432;-2.598;2023-03-25T19:26:20;12.25;;;6.35;;
56255;SDS011;57229;51.432;-2.598;2023-03-25T19:28:45;12.98;;;6.90;;
56255;SDS011;57229;51.432;-2.598;2023-03-25T19:31:12;11.07;;;6.38;;
56255;SDS011;57229;51.432;-2.598;2023-03-25T19:33:42;14.50;;;7.18;;
56255;SDS011;57229;51.432;-2.598;2023-03-25T19:36:11;8.88;;;6.45;;
56255;SDS011;57229;51.432;-2.598;2023-03-25T19:38:42;13.68;;;7.10;;
56255;SDS011;57229;51.432;-2.598;2023-03-25T19:41:11;12.32;;;6.55;;
56255;SDS011;57229;51.432;-2.598;2023-03-25T19:43:43;11.02;;;7.00;;
56255;SDS011;57229;51.432;-2.598;2023-03-25T19:46:09;13.50;;;7.00;;
56255;SDS011;57229;51.432;-2.598;2023-03-25T19:48:35;11.45;;;7.53;;
56255;SDS011;57229;51.432;-2.598;2023-03-25T19:51:01;10.27;;;7.72;;
56255;SDS011;57229;51.432;-2.598;2023-03-25T19:53:28;13.50;;;7.82;;
56255;SDS011;57229;51.432;-2.598;2023-03-25T19:56:08;16.90;;;8.10;;
56255;SDS011;57229;51.432;-2.598;2023-03-25T19:59:08;15.02;;;8.30;;
56255;SDS011;57229;51.432;-2.598;2023-03-25T20:01:34;18.38;;;8.45;;
56255;SDS011;57229;51.432;-2.598;2023-03-25T20:04:01;17.55;;;8.88;;
56255;SDS011;57229;51.432;-2.598;2023-03-25T20:06:28;22.88;;;8.57;;
56255;SDS011;57229;51.432;-2.598;2023-03-25T20:08:54;20.10;;;8.15;;
56255;SDS011;57229;51.432;-2.598;2023-03-25T20:11:20;17.85;;;7.22;;
56255;SDS011;57229;51.432;-2.598;2023-03-25T20:13:46;17.92;;;7.10;;
56255;SDS011;57229;51.432;-2.598;2023-03-25T20:16:13;24.15;;;7.63;;
56255;SDS011;57229;51.432;-2.598;2023-03-25T20:18:39;20.35;;;7.20;;
56255;SDS011;57229;51.432;-2.598;2023-03-25T20:21:06;15.93;;;7.10;;
56255;SDS011;57229;51.432;-2.598;2023-03-25T20:23:32;13.07;;;6.80;;
56255;SDS011;57229;51.432;-2.598;2023-03-25T20:25:59;23.02;;;7.63;;
56255;SDS011;57229;51.432;-2.598;2023-03-25T20:28:24;24.55;;;7.55;;
56255;SDS011;57229;51.432;-2.598;2023-03-25T20:30:50;17.70;;;7.30;;
56255;SDS011;57229;51.432;-2.598;2023-03-25T20:33:16;19.38;;;7.60;;
56255;SDS011;57229;51.432;-2.598;2023-03-25T20:35:42;27.40;;;7.60;;
56255;SDS011;57229;51.432;-2.598;2023-03-25T20:38:09;23.48;;;7.57;;
56255;SDS011;57229;51.432;-2.598;2023-03-25T20:40:36;25.02;;;7.32;;